Parhams, Louisiana
Current Conditions -  °F | °C
As of 3:53 PM on Monday 22 Dec 2014 (Local Time) from KESF Reporting Station
Clear Clear  
Wind Chill: 70°   Ceiling: Unl
Heat Index: 70°   Visibility: 10mi
Dew Point: 61°   Wind: 7mph
Humidity: 73%   Direction: 190°S
Pressure: 29.6"   Gusts: NA
Location:  31.5028°N, 91.9028°W
Report Text: KESF 222153Z AUTO 19006KT 10SM CLR 21/16 A2960 RMK AO2 SLP023 T02110161
Loading
Personal Weather Stations






























Interactive Weather Map New forecast layout! Learn more

10-Day Weather Forecast

Advertisements
Track Severe Weather on mobile